Time;durP1;ratioP1;P1;durP2;ratioP2;P2;SDS_P1;SDS_P2;PMS_P1;PMS_P2;Temp;Humidity;BMP_temperature;BMP_pressure;BME280_temperature;BME280_humidity;BME280_pressure;Samples;Min_cycle;Max_cycle;Signal;HPM_P1;HPM_P2
2020/12/31 00:00:04;;;;;;;4.38;3.47;;;1.20;99.90;;;;;;5069904;28;20062;-75
2020/12/31 00:02:29;;;;;;;5.15;3.83;;;1.20;99.90;;;;;;5086368;28;20073;-75
2020/12/31 00:04:55;;;;;;;4.95;3.50;;;1.10;99.90;;;;;;5089755;28;20053;-72
2020/12/31 00:07:21;;;;;;;7.32;5.03;;;1.10;99.90;;;;;;5088172;28;20074;-74
2020/12/31 00:09:46;;;;;;;7.85;5.13;;;1.10;99.90;;;;;;5084612;28;20032;-70
2020/12/31 00:12:12;;;;;;;8.38;5.30;;;1.10;99.90;;;;;;5088015;28;20123;-74
2020/12/31 00:14:38;;;;;;;5.93;4.55;;;1.00;99.90;;;;;;5087602;28;20435;-75
2020/12/31 00:17:04;;;;;;;5.63;4.68;;;1.00;99.90;;;;;;5085388;28;20115;-73
2020/12/31 00:19:29;;;;;;;7.03;5.28;;;1.00;99.90;;;;;;5086919;28;20066;-73
2020/12/31 00:21:55;;;;;;;6.85;4.90;;;1.00;99.90;;;;;;5084452;28;20052;-72
2020/12/31 00:24:21;;;;;;;8.70;4.88;;;1.00;99.90;;;;;;5086437;28;20048;-75
2020/12/31 00:26:47;;;;;;;7.45;4.80;;;1.00;99.90;;;;;;5086020;28;20027;-71
2020/12/31 00:29:13;;;;;;;6.18;5.03;;;1.10;99.90;;;;;;5085331;28;20055;-75
2020/12/31 00:31:39;;;;;;;5.80;4.43;;;1.10;99.90;;;;;;5086546;28;20024;-75
2020/12/31 00:34:05;;;;;;;6.68;4.72;;;1.10;99.90;;;;;;5087530;28;20408;-72
2020/12/31 00:36:32;;;;;;;5.68;3.97;;;1.20;99.90;;;;;;5085524;28;20111;-73
2020/12/31 00:38:57;;;;;;;5.55;4.05;;;1.30;99.90;;;;;;5082975;28;20037;-75
2020/12/31 00:41:23;;;;;;;5.15;4.13;;;1.30;99.90;;;;;;5087261;28;20488;-75
2020/12/31 00:43:49;;;;;;;5.75;3.92;;;1.40;99.90;;;;;;5085545;28;20065;-71
2020/12/31 00:46:15;;;;;;;5.53;4.15;;;1.40;99.90;;;;;;5087153;28;20060;-75
2020/12/31 00:48:41;;;;;;;5.60;4.22;;;1.50;99.90;;;;;;5085525;28;20031;-75
2020/12/31 00:51:07;;;;;;;6.32;4.03;;;1.50;99.90;;;;;;5084844;28;20016;-73
2020/12/31 00:53:33;;;;;;;4.50;3.42;;;1.50;99.90;;;;;;5086369;28;20250;-72
2020/12/31 00:55:59;;;;;;;4.70;2.70;;;1.60;99.90;;;;;;5084216;28;20031;-76
2020/12/31 00:58:25;;;;;;;3.88;2.97;;;1.60;99.90;;;;;;5085099;28;20457;-75
2020/12/31 01:00:50;;;;;;;4.65;3.17;;;1.70;99.90;;;;;;5090385;28;20445;-73
2020/12/31 01:03:17;;;;;;;4.53;2.78;;;1.70;99.90;;;;;;5090450;28;20414;-75
2020/12/31 01:05:42;;;;;;;5.00;2.90;;;1.70;99.90;;;;;;5066970;28;20032;-76
2020/12/31 01:08:08;;;;;;;2.45;2.25;;;1.60;99.90;;;;;;5085235;28;20055;-74
2020/12/31 01:10:34;;;;;;;4.18;2.45;;;1.60;99.90;;;;;;5084923;28;20143;-73
2020/12/31 01:13:00;;;;;;;4.85;2.95;;;1.60;99.90;;;;;;5083822;28;20112;-73
2020/12/31 01:15:26;;;;;;;4.38;2.65;;;1.60;99.90;;;;;;5087020;28;20465;-73
2020/12/31 01:17:51;;;;;;;3.08;2.60;;;1.50;99.90;;;;;;5082686;28;20024;-73
2020/12/31 01:20:17;;;;;;;6.38;3.10;;;1.50;99.90;;;;;;5088255;28;20034;-75
2020/12/31 01:22:43;;;;;;;5.28;3.40;;;1.50;99.90;;;;;;5087197;28;20031;-75
2020/12/31 01:25:08;;;;;;;4.93;3.03;;;1.40;99.90;;;;;;5082497;28;20571;-76
2020/12/31 01:27:37;;;;;;;4.30;2.97;;;1.30;99.90;;;;;;5089926;28;20456;-76
2020/12/31 01:30:04;;;;;;;5.13;3.08;;;1.30;99.90;;;;;;5090140;28;20051;-72
2020/12/31 01:32:29;;;;;;;4.28;3.15;;;1.20;99.90;;;;;;5091249;28;20032;-74
2020/12/31 01:34:55;;;;;;;5.00;2.85;;;1.20;99.90;;;;;;5085112;28;20022;-75
2020/12/31 01:37:21;;;;;;;7.10;2.90;;;1.20;99.90;;;;;;5074917;28;20028;-76
2020/12/31 01:39:48;;;;;;;5.68;2.92;;;1.10;99.90;;;;;;5092173;28;20028;-71
2020/12/31 01:42:14;;;;;;;6.38;3.10;;;1.00;99.90;;;;;;5073603;28;20081;-74
2020/12/31 01:44:40;;;;;;;6.38;3.65;;;1.00;99.90;;;;;;5089485;28;20089;-74
2020/12/31 01:47:06;;;;;;;5.03;3.42;;;0.90;99.90;;;;;;5090305;28;20035;-72
2020/12/31 01:49:35;;;;;;;5.75;4.05;;;0.90;99.90;;;;;;5091418;28;20045;-76
2020/12/31 01:52:02;;;;;;;5.25;3.80;;;0.90;99.90;;;;;;5090158;28;20028;-74
2020/12/31 01:54:28;;;;;;;5.30;4.03;;;0.80;99.90;;;;;;5072864;28;20042;-74
2020/12/31 01:56:57;;;;;;;5.93;4.07;;;0.70;99.90;;;;;;5088223;28;20073;-73
2020/12/31 01:59:23;;;;;;;4.95;3.83;;;0.70;99.90;;;;;;5090921;28;20056;-74
2020/12/31 02:01:50;;;;;;;6.95;4.25;;;0.60;99.90;;;;;;5090732;28;20024;-71
2020/12/31 02:04:16;;;;;;;5.95;4.43;;;0.60;99.90;;;;;;5091326;28;20038;-76
2020/12/31 02:06:43;;;;;;;6.05;4.22;;;0.60;99.90;;;;;;5091813;28;20024;-73
2020/12/31 02:09:09;;;;;;;8.52;4.88;;;0.50;99.90;;;;;;5094028;28;20123;-74
2020/12/31 02:11:35;;;;;;;8.27;4.57;;;0.50;99.90;;;;;;5094317;28;20028;-76
2020/12/31 02:14:02;;;;;;;8.80;4.85;;;0.50;99.90;;;;;;5093046;28;20055;-77
2020/12/31 02:16:29;;;;;;;5.82;4.43;;;0.60;99.90;;;;;;5094839;28;20093;-76
2020/12/31 02:19:05;;;;;;;9.15;4.57;;;0.60;99.90;;;;;;5093694;28;20028;-76
2020/12/31 02:21:34;;;;;;;7.28;4.65;;;0.70;99.90;;;;;;5094687;28;20473;-77
2020/12/31 02:24:02;;;;;;;6.15;4.30;;;0.70;99.90;;;;;;5093694;28;20028;-73
2020/12/31 02:26:30;;;;;;;7.03;4.38;;;0.70;99.90;;;;;;5094028;28;20028;-77
2020/12/31 02:28:58;;;;;;;9.38;4.53;;;0.70;99.90;;;;;;5093549;28;20095;-76
2020/12/31 02:31:25;;;;;;;5.65;3.65;;;0.70;99.90;;;;;;5094325;28;20064;-76
2020/12/31 02:33:52;;;;;;;6.70;4.80;;;0.70;99.90;;;;;;5075812;28;20063;-71
2020/12/31 02:36:21;;;;;;;6.63;4.10;;;0.80;99.90;;;;;;5093711;28;20028;-77
2020/12/31 02:38:47;;;;;;;5.88;4.15;;;0.80;99.90;;;;;;5086503;28;20027;-77
2020/12/31 02:41:13;;;;;;;4.88;3.80;;;0.80;99.90;;;;;;5093023;28;20028;-76
2020/12/31 02:43:39;;;;;;;7.97;4.40;;;0.80;99.90;;;;;;5093128;28;20388;-76
2020/12/31 02:46:07;;;;;;;6.68;4.10;;;0.80;99.90;;;;;;5093000;28;20072;-76
2020/12/31 02:48:33;;;;;;;5.85;4.53;;;0.80;99.90;;;;;;5093600;28;20032;-77
2020/12/31 02:50:59;;;;;;;6.47;4.28;;;0.80;99.90;;;;;;5093094;28;20469;-76
2020/12/31 02:53:24;;;;;;;8.68;5.03;;;0.80;99.90;;;;;;5093553;28;20044;-75
2020/12/31 02:55:50;;;;;;;6.97;3.90;;;0.80;99.90;;;;;;5093988;28;20541;-76
2020/12/31 02:58:16;;;;;;;5.43;4.13;;;0.80;99.90;;;;;;5093346;28;20419;-76
2020/12/31 03:00:42;;;;;;;7.10;4.20;;;0.80;99.90;;;;;;5093553;28;20030;-75
2020/12/31 03:03:08;;;;;;;9.00;4.05;;;0.80;99.90;;;;;;5093012;28;20107;-74
2020/12/31 03:05:34;;;;;;;6.22;4.13;;;0.80;99.90;;;;;;5093835;28;20112;-74
2020/12/31 03:08:00;;;;;;;6.68;3.92;;;0.80;99.90;;;;;;5092541;28;20028;-73
2020/12/31 03:10:25;;;;;;;7.07;4.65;;;0.80;99.90;;;;;;5093607;28;20032;-75
2020/12/31 03:12:51;;;;;;;5.97;4.43;;;0.80;99.90;;;;;;5093453;28;20036;-72
2020/12/31 03:15:19;;;;;;;5.25;3.90;;;0.80;99.90;;;;;;5092710;28;20028;-73
2020/12/31 03:17:45;;;;;;;6.18;4.13;;;0.70;99.90;;;;;;5092443;28;20054;-74
2020/12/31 03:20:11;;;;;;;5.85;4.13;;;0.60;99.90;;;;;;5092490;28;20032;-72
2020/12/31 03:22:36;;;;;;;5.95;4.15;;;0.50;99.90;;;;;;5093229;28;20028;-71
2020/12/31 03:25:03;;;;;;;5.60;3.90;;;0.40;99.90;;;;;;5092079;28;20032;-74
2020/12/31 03:27:29;;;;;;;5.78;3.65;;;0.30;99.90;;;;;;5092836;28;20522;-72
2020/12/31 03:29:55;;;;;;;6.75;4.20;;;0.20;99.90;;;;;;5084671;28;20031;-69
2020/12/31 03:32:21;;;;;;;6.03;3.88;;;0.10;99.90;;;;;;5093105;28;20044;-75
2020/12/31 03:34:47;;;;;;;6.47;4.20;;;0.00;99.90;;;;;;5093017;28;20040;-75
2020/12/31 03:37:12;;;;;;;5.75;4.05;;;0.00;99.90;;;;;;5092474;28;20131;-73
2020/12/31 03:39:38;;;;;;;6.50;4.55;;;-0.10;99.90;;;;;;5092983;28;20028;-76
2020/12/31 03:42:05;;;;;;;6.15;4.28;;;-0.20;99.90;;;;;;5092195;28;20028;-76
2020/12/31 03:44:31;;;;;;;7.75;4.65;;;-0.20;99.90;;;;;;5092976;28;20136;-75
2020/12/31 03:46:56;;;;;;;5.80;4.20;;;-0.30;99.90;;;;;;5092129;28;20016;-71
2020/12/31 03:49:22;;;;;;;10.32;4.35;;;-0.30;99.90;;;;;;5092619;28;20039;-73
2020/12/31 03:51:48;;;;;;;6.90;4.15;;;-0.30;99.90;;;;;;5092076;28;20073;-74
2020/12/31 03:54:14;;;;;;;6.75;4.10;;;-0.30;99.90;;;;;;5091950;28;20668;-74
2020/12/31 03:56:39;;;;;;;5.97;4.00;;;-0.30;99.90;;;;;;5074439;28;20032;-74
2020/12/31 03:59:05;;;;;;;7.80;4.82;;;-0.40;99.90;;;;;;5091855;28;20024;-74
2020/12/31 04:01:31;;;;;;;7.25;4.15;;;-0.40;99.90;;;;;;5092402;28;20024;-76
2020/12/31 04:03:57;;;;;;;5.65;3.78;;;-0.50;99.90;;;;;;5091303;28;20431;-71
2020/12/31 04:06:23;;;;;;;6.50;4.00;;;-0.60;99.90;;;;;;5092722;28;20078;-75
2020/12/31 04:08:49;;;;;;;6.53;4.20;;;-0.60;99.90;;;;;;5092556;28;20107;-76
2020/12/31 04:11:15;;;;;;;7.78;4.28;;;-0.70;99.90;;;;;;5091448;28;20099;-74
2020/12/31 04:13:41;;;;;;;6.10;3.95;;;-0.70;99.90;;;;;;5091210;28;20431;-77
2020/12/31 04:16:06;;;;;;;5.80;3.80;;;-0.80;99.90;;;;;;5089177;28;20024;-74
2020/12/31 04:18:32;;;;;;;6.05;3.85;;;-0.80;99.90;;;;;;5092239;28;20499;-74
2020/12/31 04:20:58;;;;;;;7.45;4.63;;;-0.90;99.90;;;;;;5091874;28;20028;-73
2020/12/31 04:23:24;;;;;;;5.38;3.50;;;-0.90;99.90;;;;;;5092202;28;20092;-76
2020/12/31 04:25:51;;;;;;;5.15;3.40;;;-0.90;99.90;;;;;;5092136;28;20032;-75
2020/12/31 04:28:17;;;;;;;5.43;3.60;;;-1.00;99.90;;;;;;5091232;28;20606;-76
2020/12/31 04:30:46;;;;;;;8.10;4.28;;;-1.00;99.90;;;;;;5091584;28;20032;-72
2020/12/31 04:33:12;;;;;;;6.18;3.72;;;-1.00;99.90;;;;;;5073230;28;20117;-76
2020/12/31 04:35:38;;;;;;;6.88;3.72;;;-1.10;99.90;;;;;;5091814;28;20028;-75
2020/12/31 04:38:04;;;;;;;4.95;3.75;;;-1.10;99.90;;;;;;5090989;28;20035;-73
2020/12/31 04:40:31;;;;;;;6.03;4.00;;;-1.10;99.90;;;;;;5091990;28;20050;-74
2020/12/31 04:42:57;;;;;;;5.05;3.70;;;-1.20;99.90;;;;;;5091105;28;20057;-75
2020/12/31 04:45:25;;;;;;;6.32;3.35;;;-1.30;99.90;;;;;;5087493;28;20034;-74
2020/12/31 04:48:09;;;;;;;4.82;3.35;;;-1.40;99.90;;;;;;5091407;28;20043;-77
2020/12/31 04:50:45;;;;;;;7.32;3.63;;;-1.40;99.90;;;;;;5092061;28;20103;-74
2020/12/31 04:53:11;;;;;;;5.38;3.65;;;-1.50;99.90;;;;;;5090819;28;20039;-77
2020/12/31 04:55:45;;;;;;;6.35;3.20;;;-1.50;99.90;;;;;;5091675;28;20040;-75
2020/12/31 04:58:12;;;;;;;3.65;2.90;;;-1.40;99.90;;;;;;5072906;28;20032;-74
2020/12/31 05:00:39;;;;;;;4.30;3.03;;;-1.40;99.90;;;;;;5091444;28;20377;-73
2020/12/31 05:03:05;;;;;;;5.15;3.10;;;-1.20;99.90;;;;;;5091317;28;20034;-76
2020/12/31 05:05:32;;;;;;;7.07;3.03;;;-1.00;99.90;;;;;;5091567;28;20107;-76
2020/12/31 05:07:59;;;;;;;5.63;3.22;;;-0.90;99.90;;;;;;5072589;28;20036;-71
2020/12/31 05:10:25;;;;;;;3.90;2.90;;;-0.80;99.90;;;;;;5091765;28;20059;-76
2020/12/31 05:13:05;;;;;;;7.97;3.40;;;-0.70;99.90;;;;;;5073148;28;20060;-74
2020/12/31 05:15:37;;;;;;;6.15;3.90;;;-0.70;99.90;;;;;;5084823;28;20035;-73
2020/12/31 05:18:31;;;;;;;5.40;3.10;;;-0.60;99.90;;;;;;5090354;28;20484;-74
2020/12/31 05:20:58;;;;;;;4.45;3.08;;;-0.60;99.90;;;;;;5091170;28;20469;-70
2020/12/31 05:23:26;;;;;;;6.40;3.75;;;-0.60;99.90;;;;;;5091128;28;20032;-74
2020/12/31 05:25:52;;;;;;;6.10;3.35;;;-0.60;99.90;;;;;;5091046;28;20149;-73
2020/12/31 05:28:22;;;;;;;6.03;2.95;;;-0.60;99.90;;;;;;5090212;28;20642;-75
2020/12/31 05:30:50;;;;;;;6.43;3.30;;;-0.60;99.90;;;;;;5082962;28;20039;-75
2020/12/31 05:33:24;;;;;;;6.70;3.10;;;-0.70;99.90;;;;;;5090364;28;20068;-77
2020/12/31 05:35:51;;;;;;;11.82;5.35;;;-0.60;99.90;;;;;;5091154;28;20083;-74
2020/12/31 05:38:21;;;;;;;23.25;6.50;;;-0.70;99.90;;;;;;5090265;28;20024;-73
2020/12/31 05:40:59;;;;;;;24.95;7.95;;;-0.70;99.90;;;;;;5091238;28;20059;-73
2020/12/31 05:43:25;;;;;;;17.50;6.38;;;-0.70;99.90;;;;;;5095538;28;20028;-74
2020/12/31 05:46:08;;;;;;;10.77;3.95;;;-0.80;99.90;;;;;;5093185;28;20029;-75
2020/12/31 05:48:34;;;;;;;7.68;3.88;;;-0.80;99.90;;;;;;5095407;28;20028;-72
2020/12/31 05:51:18;;;;;;;8.30;3.85;;;-0.80;99.90;;;;;;5094888;28;20024;-70
2020/12/31 05:53:46;;;;;;;8.75;3.83;;;-0.80;99.90;;;;;;5094903;28;20044;-75
2020/12/31 05:56:14;;;;;;;5.90;3.72;;;-0.90;99.90;;;;;;5076053;28;20461;-74
2020/12/31 05:58:45;;;;;;;7.25;3.75;;;-0.90;99.90;;;;;;5084389;28;20123;-71
2020/12/31 06:01:13;;;;;;;6.53;3.55;;;-0.90;99.90;;;;;;5092680;28;20481;-75
2020/12/31 06:03:50;;;;;;;5.07;3.50;;;-0.90;99.90;;;;;;5094632;28;20042;-75
2020/12/31 06:06:18;;;;;;;9.13;4.38;;;-1.00;99.90;;;;;;5094393;28;20085;-74
2020/12/31 06:09:04;;;;;;;8.35;4.32;;;-1.00;99.90;;;;;;5094311;28;20085;-76
2020/12/31 06:11:35;;;;;;;9.07;4.07;;;-1.00;99.90;;;;;;5094722;28;20491;-76
2020/12/31 06:14:05;;;;;;;5.85;3.88;;;-1.10;99.90;;;;;;5094116;28;20043;-72
2020/12/31 06:16:37;;;;;;;;;;;-1.10;99.90;;;;;;5095132;28;20457;-77
2020/12/31 06:19:26;;;;;;;6.60;3.40;;;-1.20;99.90;;;;;;5094599;28;19915;-77
2020/12/31 06:22:05;;;;;;;6.13;3.95;;;-1.20;99.90;;;;;;5094547;28;20477;-77
2020/12/31 06:24:35;;;;;;;6.47;3.75;;;-1.30;99.90;;;;;;5095092;28;20357;-77
2020/12/31 06:27:10;;;;;;;;;;;-1.30;99.90;;;;;;5093964;28;20533;-72
2020/12/31 06:29:48;;;;;;;8.82;3.35;;;-1.40;99.90;;;;;;5087946;28;19930;-77
2020/12/31 06:32:34;;;;;;;5.00;3.60;;;-1.40;99.90;;;;;;5093299;28;20032;-75
2020/12/31 06:35:09;;;;;;;7.55;4.05;;;-1.40;99.90;;;;;;5094203;28;20097;-72
2020/12/31 06:37:35;;;;;;;7.18;4.03;;;-1.50;99.90;;;;;;5094257;28;20032;-77
2020/12/31 06:40:27;;;;;;;6.57;4.07;;;-1.50;99.90;;;;;;5093998;28;20031;-72
2020/12/31 06:43:14;;;;;;;5.95;3.72;;;-1.50;99.90;;;;;;5094070;28;20438;-78
2020/12/31 06:45:39;;;;;;;9.70;4.18;;;-1.50;99.90;;;;;;5093477;28;20036;-77
2020/12/31 06:48:26;;;;;;;6.78;4.30;;;-1.40;99.90;;;;;;5075105;28;20027;-75
2020/12/31 06:51:07;;;;;;;7.28;4.38;;;-1.40;99.90;;;;;;5093573;28;20059;-75
2020/12/31 06:53:38;;;;;;;6.65;4.05;;;-1.40;99.90;;;;;;5093687;28;20044;-76
2020/12/31 06:56:10;;;;;;;5.75;4.07;;;-1.40;99.90;;;;;;5093039;28;20032;-73
2020/12/31 06:58:37;;;;;;;7.43;4.40;;;-1.40;99.90;;;;;;5093808;28;20438;-74
2020/12/31 07:01:29;;;;;;;7.65;4.70;;;-1.40;99.90;;;;;;5093375;28;20378;-71
2020/12/31 07:03:57;;;;;;;7.07;4.57;;;-1.30;99.90;;;;;;5093612;28;20024;-76
2020/12/31 07:06:32;;;;;;;7.65;4.78;;;-1.30;99.90;;;;;;5091799;28;20337;-74
2020/12/31 07:09:01;;;;;;;6.63;4.10;;;-1.30;99.90;;;;;;5075643;28;20028;-76
2020/12/31 07:11:39;;;;;;;5.93;4.33;;;-1.30;99.90;;;;;;5093395;28;20024;-73
2020/12/31 07:14:26;;;;;;;8.90;5.30;;;-1.30;99.90;;;;;;5074133;28;20370;-75
2020/12/31 07:16:57;;;;;;;7.95;5.30;;;-1.30;99.90;;;;;;5092816;28;20032;-72
2020/12/31 07:19:36;;;;;;;7.75;5.45;;;-1.30;99.90;;;;;;5092976;28;20844;-79
2020/12/31 07:22:22;;;;;;;9.60;5.80;;;-1.20;99.90;;;;;;5091411;28;20103;-74
2020/12/31 07:24:53;;;;;;;7.80;5.38;;;-1.10;99.90;;;;;;5093187;28;20484;-75
2020/12/31 07:27:27;;;;;;;8.68;5.53;;;-1.00;99.90;;;;;;5074367;28;20507;-76
2020/12/31 07:29:56;;;;;;;10.30;5.65;;;-0.90;99.90;;;;;;5092954;28;20473;-73
2020/12/31 07:32:48;;;;;;;8.98;6.20;;;-0.90;99.90;;;;;;5092315;28;20690;-79
2020/12/31 07:35:29;;;;;;;8.32;5.63;;;-0.70;99.90;;;;;;5079248;28;20112;-81
2020/12/31 07:38:15;;;;;;;10.98;6.18;;;-0.70;99.90;;;;;;5085158;28;20040;-77
2020/12/31 07:40:47;;;;;;;8.70;6.18;;;-0.60;99.90;;;;;;5092866;28;20028;-76
2020/12/31 07:43:15;;;;;;;7.50;4.97;;;-0.60;99.90;;;;;;5092390;28;20046;-69
2020/12/31 07:45:49;;;;;;;8.52;5.60;;;-0.50;99.90;;;;;;5078773;28;20020;-74
2020/12/31 07:48:15;;;;;;;9.73;5.82;;;-0.50;99.90;;;;;;5092369;28;20074;-73
2020/12/31 07:50:42;;;;;;;7.03;4.90;;;-0.30;99.90;;;;;;5093035;28;20055;-77
2020/12/31 07:53:12;;;;;;;10.18;6.30;;;-0.30;99.90;;;;;;5091886;28;20044;-73
2020/12/31 07:55:47;;;;;;;9.55;5.50;;;-0.20;99.90;;;;;;5093009;28;20094;-73
2020/12/31 07:58:12;;;;;;;10.48;6.80;;;-0.20;99.90;;;;;;5073529;28;20028;-73
2020/12/31 08:00:39;;;;;;;9.10;5.72;;;-0.10;99.90;;;;;;5092141;28;20054;-73
2020/12/31 08:03:08;;;;;;;8.57;5.72;;;0.00;99.90;;;;;;5073676;28;20031;-69
2020/12/31 08:05:34;;;;;;;7.00;4.90;;;0.00;99.90;;;;;;5092112;28;20036;-76
2020/12/31 08:08:01;;;;;;;8.95;5.75;;;0.10;99.90;;;;;;5093164;28;20084;-71
2020/12/31 08:10:31;;;;;;;8.18;5.28;;;0.10;99.90;;;;;;5091643;28;20040;-71
2020/12/31 08:13:02;;;;;;;9.45;6.10;;;0.20;99.90;;;;;;5092253;28;20036;-73
2020/12/31 08:15:29;;;;;;;8.25;5.63;;;0.30;99.90;;;;;;5090085;28;20080;-76
2020/12/31 08:17:57;;;;;;;6.75;5.03;;;0.30;99.90;;;;;;5092066;28;20020;-77
2020/12/31 08:20:34;;;;;;;8.43;5.55;;;0.40;99.90;;;;;;5073485;28;20027;-76
2020/12/31 08:23:05;;;;;;;8.68;5.93;;;0.50;99.90;;;;;;5092207;28;20028;-77
2020/12/31 08:25:40;;;;;;;9.45;6.13;;;0.60;99.90;;;;;;5074112;28;20070;-76
2020/12/31 08:28:07;;;;;;;8.55;5.35;;;0.70;99.90;;;;;;5091874;28;20028;-74
2020/12/31 08:30:36;;;;;;;7.80;5.07;;;0.70;99.90;;;;;;5091964;28;20028;-75
2020/12/31 08:33:04;;;;;;;7.78;5.68;;;0.80;99.90;;;;;;5091439;28;20051;-74
2020/12/31 08:35:31;;;;;;;9.23;6.03;;;0.80;99.90;;;;;;5091896;28;20047;-74
2020/12/31 08:38:00;;;;;;;11.85;6.13;;;0.90;99.90;;;;;;5092191;28;20032;-74
2020/12/31 08:40:27;;;;;;;9.88;6.18;;;1.00;99.90;;;;;;5091249;28;20735;-74
2020/12/31 08:42:55;;;;;;;7.32;5.55;;;1.00;99.90;;;;;;5092274;28;20763;-74
2020/12/31 08:45:26;;;;;;;7.80;6.00;;;1.10;99.90;;;;;;5090977;28;20032;-74
2020/12/31 08:47:51;;;;;;;7.90;5.70;;;1.10;99.90;;;;;;5091379;28;20358;-72
2020/12/31 08:50:18;;;;;;;10.20;6.75;;;1.10;99.60;;;;;;5088510;28;20043;-74
2020/12/31 08:52:44;;;;;;;7.90;5.82;;;1.20;99.50;;;;;;5091143;28;20055;-76
2020/12/31 08:55:12;;;;;;;9.30;5.95;;;1.30;99.20;;;;;;5091531;28;20518;-74
2020/12/31 08:57:39;;;;;;;10.02;5.78;;;1.30;99.40;;;;;;5091848;28;20028;-76
2020/12/31 09:00:06;;;;;;;8.77;6.18;;;1.40;99.20;;;;;;5084433;28;20047;-71
2020/12/31 09:02:33;;;;;;;11.18;6.85;;;1.40;99.10;;;;;;5090997;28;20047;-76
2020/12/31 09:05:16;;;;;;;9.18;6.00;;;1.50;98.10;;;;;;5091580;28;20020;-76
2020/12/31 09:07:43;;;;;;;8.77;5.90;;;1.50;97.40;;;;;;5091464;28;20052;-75
2020/12/31 09:10:14;;;;;;;8.93;6.03;;;1.60;97.20;;;;;;5090337;28;20027;-74
2020/12/31 09:12:40;;;;;;;11.02;6.22;;;1.60;97.80;;;;;;5091472;28;20035;-77
2020/12/31 09:15:07;;;;;;;7.32;5.30;;;1.60;97.00;;;;;;5091091;28;20507;-75
2020/12/31 09:17:34;;;;;;;9.98;6.57;;;1.70;97.50;;;;;;5091432;28;20111;-74
2020/12/31 09:20:01;;;;;;;10.05;6.82;;;1.70;97.30;;;;;;5090820;28;20032;-72
2020/12/31 09:22:28;;;;;;;9.80;6.60;;;1.80;97.70;;;;;;5091009;28;20024;-76
2020/12/31 09:24:55;;;;;;;9.02;6.68;;;1.80;96.90;;;;;;5092027;28;20028;-76
2020/12/31 09:27:27;;;;;;;8.50;5.85;;;1.90;96.80;;;;;;5091227;28;20052;-71
2020/12/31 09:30:01;;;;;;;11.45;7.30;;;1.80;96.90;;;;;;5091432;28;20040;-70
2020/12/31 09:32:29;;;;;;;8.65;6.50;;;1.90;96.60;;;;;;5091161;28;20032;-69
2020/12/31 09:34:56;;;;;;;9.38;6.07;;;2.00;95.90;;;;;;5091272;28;20081;-69
2020/12/31 09:37:23;;;;;;;9.32;6.47;;;2.00;96.20;;;;;;5091083;28;20060;-71
2020/12/31 09:39:50;;;;;;;9.32;6.57;;;2.00;95.00;;;;;;5073932;28;20024;-69
2020/12/31 09:42:17;;;;;;;9.85;7.47;;;2.10;95.20;;;;;;5073075;28;20024;-69
2020/12/31 09:44:44;;;;;;;11.00;6.88;;;2.10;95.70;;;;;;5074075;28;20020;-70
2020/12/31 09:47:12;;;;;;;12.43;7.10;;;2.10;95.30;;;;;;5091590;28;20032;-70
2020/12/31 09:49:39;;;;;;;10.50;6.55;;;2.20;95.00;;;;;;5091397;28;20496;-71
2020/12/31 09:52:06;;;;;;;9.70;7.22;;;2.20;94.80;;;;;;5090558;28;20040;-70
2020/12/31 09:54:33;;;;;;;10.98;7.05;;;2.30;94.20;;;;;;5091015;28;20047;-70
2020/12/31 09:57:00;;;;;;;11.05;7.25;;;2.40;94.00;;;;;;5091202;28;20125;-71
2020/12/31 09:59:26;;;;;;;8.57;6.60;;;2.50;92.70;;;;;;5090454;28;20024;-67
2020/12/31 10:01:53;;;;;;;9.90;6.75;;;2.50;93.10;;;;;;5091382;28;20052;-70
2020/12/31 10:04:20;;;;;;;8.55;6.88;;;2.50;92.60;;;;;;5091767;28;20550;-69
2020/12/31 10:06:47;;;;;;;9.82;6.95;;;2.60;93.00;;;;;;5088085;28;20069;-69
2020/12/31 10:09:15;;;;;;;9.88;6.65;;;2.60;92.50;;;;;;5092116;28;20032;-71
2020/12/31 10:11:53;;;;;;;9.63;6.55;;;2.60;92.40;;;;;;5092540;28;20437;-72
2020/12/31 10:14:21;;;;;;;9.15;6.13;;;2.70;92.40;;;;;;5085323;28;20025;-70
2020/12/31 10:16:48;;;;;;;8.45;6.03;;;2.70;92.30;;;;;;5077428;28;20024;-71
2020/12/31 10:19:14;;;;;;;8.65;5.88;;;2.80;91.40;;;;;;5072159;28;20126;-72
2020/12/31 10:21:41;;;;;;;8.95;6.35;;;2.90;90.90;;;;;;5094884;28;20064;-70
2020/12/31 10:24:07;;;;;;;8.20;5.88;;;2.90;91.20;;;;;;5090292;28;20564;-68
2020/12/31 10:26:33;;;;;;;7.07;5.10;;;3.00;91.50;;;;;;5090886;28;20106;-71
2020/12/31 10:28:58;;;;;;;8.27;6.32;;;3.20;91.20;;;;;;5094687;28;20110;-71
2020/12/31 10:31:24;;;;;;;8.32;5.68;;;3.30;89.50;;;;;;5075530;28;20118;-72
2020/12/31 10:33:50;;;;;;;8.75;6.10;;;3.50;89.40;;;;;;5076080;28;20420;-71
2020/12/31 10:36:15;;;;;;;12.02;6.72;;;3.60;87.50;;;;;;5093199;28;20032;-70
2020/12/31 10:38:41;;;;;;;9.88;6.90;;;3.70;84.90;;;;;;5094262;28;20024;-73
2020/12/31 10:41:11;;;;;;;9.13;6.53;;;3.70;84.70;;;;;;5093300;28;20067;-69
2020/12/31 10:43:37;;;;;;;10.95;6.82;;;3.70;85.70;;;;;;5075486;28;20476;-72
2020/12/31 10:46:02;;;;;;;10.18;7.05;;;3.80;86.60;;;;;;5093765;28;20043;-71
2020/12/31 10:48:28;;;;;;;8.77;5.45;;;3.90;87.90;;;;;;5074798;28;20666;-72
2020/12/31 10:50:58;;;;;;;8.35;5.07;;;3.90;84.10;;;;;;5095424;28;20027;-70
2020/12/31 10:53:23;;;;;;;6.95;5.18;;;3.80;84.30;;;;;;5073144;28;20067;-70
2020/12/31 10:55:50;;;;;;;8.15;5.47;;;3.80;84.90;;;;;;5074907;28;20481;-73
2020/12/31 10:58:15;;;;;;;8.43;5.20;;;3.70;86.10;;;;;;5074254;28;20058;-69
2020/12/31 11:00:41;;;;;;;8.43;5.95;;;3.60;89.40;;;;;;5093059;28;20032;-71
2020/12/31 11:03:07;;;;;;;7.88;5.90;;;3.50;92.00;;;;;;5093539;28;20103;-72
2020/12/31 11:05:33;;;;;;;7.88;5.80;;;3.40;93.80;;;;;;5092772;28;20112;-70
2020/12/31 11:07:59;;;;;;;7.85;5.97;;;3.30;94.90;;;;;;5093089;28;20028;-71
2020/12/31 11:10:25;;;;;;;9.38;6.35;;;3.10;96.70;;;;;;5092189;28;20374;-69
2020/12/31 11:12:50;;;;;;;7.13;5.50;;;3.10;98.20;;;;;;5093130;28;20022;-72
2020/12/31 11:15:16;;;;;;;7.95;5.68;;;3.00;98.30;;;;;;5091912;28;20039;-74
2020/12/31 11:17:43;;;;;;;6.47;4.85;;;3.00;99.70;;;;;;5092934;28;20016;-76
2020/12/31 11:20:08;;;;;;;10.00;5.90;;;3.00;99.60;;;;;;5090824;28;20438;-69
2020/12/31 11:22:34;;;;;;;9.10;5.50;;;3.00;99.90;;;;;;5091700;28;20108;-75
2020/12/31 11:25:00;;;;;;;8.52;5.68;;;3.10;99.90;;;;;;5092895;28;20024;-78
2020/12/31 11:27:26;;;;;;;9.60;5.88;;;3.10;99.90;;;;;;5073806;28;20100;-71
2020/12/31 11:29:51;;;;;;;8.45;5.70;;;3.20;99.90;;;;;;5092835;28;20027;-71
2020/12/31 11:32:17;;;;;;;6.50;4.68;;;3.10;99.90;;;;;;5091904;28;20036;-76
2020/12/31 11:34:43;;;;;;;8.40;5.88;;;3.10;99.90;;;;;;5092436;28;20172;-75
2020/12/31 11:37:09;;;;;;;8.82;5.60;;;3.10;99.90;;;;;;5074602;28;20114;-69
2020/12/31 11:39:35;;;;;;;7.93;5.60;;;3.10;99.90;;;;;;5090559;28;20031;-74
2020/12/31 11:42:00;;;;;;;7.80;5.95;;;3.20;99.90;;;;;;5092459;28;20085;-73
2020/12/31 11:44:26;;;;;;;7.75;6.20;;;3.20;99.90;;;;;;5091318;28;20118;-71
2020/12/31 11:47:00;;;;;;;8.60;6.07;;;3.20;99.90;;;;;;5093024;28;20054;-76
2020/12/31 11:49:26;;;;;;;10.93;6.93;;;3.20;99.90;;;;;;5086739;28;20488;-76
2020/12/31 11:51:59;;;;;;;9.25;6.38;;;3.30;99.90;;;;;;5088192;28;20032;-75
2020/12/31 11:54:26;;;;;;;8.98;6.28;;;3.30;99.90;;;;;;5090649;28;20048;-75
2020/12/31 11:56:52;;;;;;;9.35;6.68;;;3.40;99.90;;;;;;5092051;28;20032;-74
2020/12/31 11:59:17;;;;;;;11.45;7.07;;;3.50;99.90;;;;;;5091072;28;20441;-72
2020/12/31 12:01:52;;;;;;;8.13;5.78;;;3.60;99.90;;;;;;5074203;28;20148;-75
2020/12/31 12:04:21;;;;;;;9.75;6.60;;;3.80;99.90;;;;;;5091195;28;20400;-70
2020/12/31 12:06:54;;;;;;;10.70;6.75;;;3.90;99.80;;;;;;5091755;28;20048;-73
2020/12/31 12:09:21;;;;;;;9.70;6.40;;;4.00;99.20;;;;;;5090911;28;20062;-71
2020/12/31 12:11:47;;;;;;;8.93;6.55;;;4.10;97.10;;;;;;5091612;28;20032;-73
2020/12/31 12:14:13;;;;;;;10.63;6.78;;;4.20;96.40;;;;;;5090498;28;20431;-71
2020/12/31 12:16:40;;;;;;;10.18;7.35;;;4.10;95.20;;;;;;5091908;28;20024;-69
2020/12/31 12:19:10;;;;;;;9.65;6.28;;;4.10;96.60;;;;;;5090557;28;20389;-72
2020/12/31 12:21:36;;;;;;;9.20;6.82;;;4.10;97.00;;;;;;5069736;28;20033;-68
2020/12/31 12:24:03;;;;;;;11.68;6.78;;;4.10;96.90;;;;;;5089476;28;20431;-75
2020/12/31 12:26:34;;;;;;;9.02;5.75;;;4.10;96.80;;;;;;5042985;28;20032;-74
2020/12/31 12:29:00;;;;;;;7.30;5.75;;;4.10;96.30;;;;;;5090725;28;20024;-75
2020/12/31 12:31:38;;;;;;;6.60;5.28;;;4.00;95.90;;;;;;5091815;28;20030;-72
2020/12/31 12:34:05;;;;;;;9.77;6.88;;;4.00;94.90;;;;;;5073522;28;20040;-69
2020/12/31 12:36:31;;;;;;;8.23;6.03;;;4.00;96.20;;;;;;5072886;28;20074;-74
2020/12/31 12:38:57;;;;;;;9.40;5.50;;;3.90;96.40;;;;;;5091785;28;20354;-72
2020/12/31 12:41:23;;;;;;;9.93;6.00;;;3.90;97.00;;;;;;5090434;28;20431;-71
2020/12/31 12:43:50;;;;;;;11.18;6.35;;;3.90;98.30;;;;;;5091329;28;20020;-70
2020/12/31 12:46:17;;;;;;;7.65;5.93;;;3.90;97.80;;;;;;5090133;28;20393;-68
2020/12/31 12:48:43;;;;;;;8.50;5.70;;;3.90;96.80;;;;;;5091503;28;20020;-70
2020/12/31 12:51:09;;;;;;;8.13;5.15;;;3.90;96.10;;;;;;5070938;28;20078;-71
2020/12/31 12:53:36;;;;;;;8.70;5.00;;;3.80;96.00;;;;;;5089717;28;20044;-70
2020/12/31 12:56:02;;;;;;;8.00;5.10;;;3.80;97.00;;;;;;5090747;28;20054;-71
2020/12/31 12:58:28;;;;;;;7.20;5.10;;;3.80;97.70;;;;;;5072446;28;20381;-70